sensor_id;sensor_type;location;lat;lon;timestamp;pressure;altitude;pressure_sealevel;temperature;humidity
13241;BME280;6687;47.790;7.322;2023-04-30T05:24:52;99072.88;;;12.47;84.11
13241;BME280;6687;47.790;7.322;2023-04-30T05:27:20;99080.59;;;12.71;82.42
13241;BME280;6687;47.790;7.322;2023-04-30T05:29:46;99084.88;;;12.80;81.68
13241;BME280;6687;47.790;7.322;2023-04-30T05:32:13;99077.69;;;13.22;80.59
13241;BME280;6687;47.790;7.322;2023-04-30T05:34:40;99084.75;;;12.99;80.20
13241;BME280;6687;47.790;7.322;2023-04-30T05:37:06;99079.31;;;13.39;79.09
13241;BME280;6687;47.790;7.322;2023-04-30T05:39:33;99080.31;;;13.19;79.98
13241;BME280;6687;47.790;7.322;2023-04-30T05:42:01;99072.34;;;13.44;78.04
13241;BME280;6687;47.790;7.322;2023-04-30T05:44:28;99082.81;;;13.38;77.55
13241;BME280;6687;47.790;7.322;2023-04-30T05:46:55;99080.97;;;13.52;77.67
13241;BME280;6687;47.790;7.322;2023-04-30T05:49:22;99079.94;;;13.70;77.91
13241;BME280;6687;47.790;7.322;2023-04-30T05:51:49;99075.03;;;13.28;77.91
13241;BME280;6687;47.790;7.322;2023-04-30T05:54:16;99084.47;;;13.48;77.75
13241;BME280;6687;47.790;7.322;2023-04-30T05:56:42;99088.81;;;13.49;76.88
13241;BME280;6687;47.790;7.322;2023-04-30T05:59:10;99086.69;;;13.91;74.73
13241;BME280;6687;47.790;7.322;2023-04-30T06:01:38;99079.16;;;13.60;75.64
13241;BME280;6687;47.790;7.322;2023-04-30T06:04:04;99081.75;;;13.65;76.36
13241;BME280;6687;47.790;7.322;2023-04-30T06:06:31;99089.19;;;14.03;74.59
13241;BME280;6687;47.790;7.322;2023-04-30T06:08:58;99090.81;;;14.10;74.25
13241;BME280;6687;47.790;7.322;2023-04-30T06:11:25;99082.34;;;13.91;74.75
13241;BME280;6687;47.790;7.322;2023-04-30T06:13:51;99085.19;;;13.64;75.17
13241;BME280;6687;47.790;7.322;2023-04-30T06:16:20;99075.09;;;14.23;73.35
13241;BME280;6687;47.790;7.322;2023-04-30T06:18:46;99064.28;;;14.53;72.63
13241;BME280;6687;47.790;7.322;2023-04-30T06:21:13;99073.63;;;13.97;73.08
13241;BME280;6687;47.790;7.322;2023-04-30T06:23:40;99066.22;;;14.36;72.43
13241;BME280;6687;47.790;7.322;2023-04-30T06:26:07;99066.75;;;14.67;71.48
13241;BME280;6687;47.790;7.322;2023-04-30T06:28:33;99063.44;;;15.18;69.95
13241;BME280;6687;47.790;7.322;2023-04-30T06:31:00;99058.38;;;15.06;69.57
13241;BME280;6687;47.790;7.322;2023-04-30T06:33:29;99059.28;;;15.05;68.60
13241;BME280;6687;47.790;7.322;2023-04-30T06:35:56;99064.09;;;15.31;69.79
13241;BME280;6687;47.790;7.322;2023-04-30T06:38:22;99055.41;;;15.30;69.22
13241;BME280;6687;47.790;7.322;2023-04-30T06:40:49;99066.44;;;15.48;67.40
13241;BME280;6687;47.790;7.322;2023-04-30T06:43:16;99070.47;;;15.13;69.03
13241;BME280;6687;47.790;7.322;2023-04-30T06:45:42;99074.22;;;14.94;68.13
13241;BME280;6687;47.790;7.322;2023-04-30T06:48:09;99076.50;;;15.69;66.35
13241;BME280;6687;47.790;7.322;2023-04-30T06:50:37;99074.06;;;15.62;68.07
13241;BME280;6687;47.790;7.322;2023-04-30T06:53:09;99065.50;;;16.03;65.96
13241;BME280;6687;47.790;7.322;2023-04-30T06:55:36;99073.78;;;15.79;65.21
13241;BME280;6687;47.790;7.322;2023-04-30T06:58:03;99070.66;;;16.08;64.76
13241;BME280;6687;47.790;7.322;2023-04-30T07:00:30;99077.84;;;15.95;65.14
13241;BME280;6687;47.790;7.322;2023-04-30T07:02:57;99068.13;;;15.52;65.64
13241;BME280;6687;47.790;7.322;2023-04-30T07:05:26;99077.34;;;15.75;64.16
13241;BME280;6687;47.790;7.322;2023-04-30T07:07:55;99080.75;;;15.80;63.93
13241;BME280;6687;47.790;7.322;2023-04-30T07:10:22;99070.63;;;16.09;63.77
13241;BME280;6687;47.790;7.322;2023-04-30T07:12:48;99074.13;;;16.08;63.17
13241;BME280;6687;47.790;7.322;2023-04-30T07:15:15;99078.47;;;16.09;62.53
13241;BME280;6687;47.790;7.322;2023-04-30T07:17:42;99075.94;;;16.03;63.93
13241;BME280;6687;47.790;7.322;2023-04-30T07:20:10;99073.00;;;15.74;63.27
13241;BME280;6687;47.790;7.322;2023-04-30T07:22:38;99067.56;;;16.31;62.85
13241;BME280;6687;47.790;7.322;2023-04-30T07:25:08;99070.97;;;16.36;62.60
13241;BME280;6687;47.790;7.322;2023-04-30T07:27:35;99071.59;;;16.04;62.21
13241;BME280;6687;47.790;7.322;2023-04-30T07:30:02;99071.19;;;16.25;63.58
13241;BME280;6687;47.790;7.322;2023-04-30T07:32:29;99076.31;;;16.30;61.00
13241;BME280;6687;47.790;7.322;2023-04-30T07:34:56;99076.78;;;16.50;60.56
13241;BME280;6687;47.790;7.322;2023-04-30T07:37:22;99077.31;;;16.68;60.26
13241;BME280;6687;47.790;7.322;2023-04-30T07:39:49;99075.13;;;17.27;60.89
13241;BME280;6687;47.790;7.322;2023-04-30T07:42:17;99068.81;;;16.99;59.80
13241;BME280;6687;47.790;7.322;2023-04-30T07:44:44;99073.56;;;17.20;59.26
13241;BME280;6687;47.790;7.322;2023-04-30T07:47:10;99081.88;;;17.00;58.51
13241;BME280;6687;47.790;7.322;2023-04-30T07:49:37;99081.84;;;16.60;59.45
13241;BME280;6687;47.790;7.322;2023-04-30T07:52:04;99084.16;;;17.52;58.08
13241;BME280;6687;47.790;7.322;2023-04-30T07:54:32;99093.06;;;17.07;58.34
13241;BME280;6687;47.790;7.322;2023-04-30T07:57:00;99086.81;;;17.50;59.08
13241;BME280;6687;47.790;7.322;2023-04-30T07:59:29;99083.69;;;16.97;57.65
13241;BME280;6687;47.790;7.322;2023-04-30T08:01:55;99083.78;;;17.31;58.02
13241;BME280;6687;47.790;7.322;2023-04-30T08:04:22;99082.44;;;17.50;57.12
13241;BME280;6687;47.790;7.322;2023-04-30T08:06:49;99082.75;;;17.37;57.17
13241;BME280;6687;47.790;7.322;2023-04-30T08:09:16;99074.16;;;17.67;56.54
13241;BME280;6687;47.790;7.322;2023-04-30T08:11:42;99080.00;;;17.79;56.38
13241;BME280;6687;47.790;7.322;2023-04-30T08:14:09;99083.38;;;17.48;56.38
13241;BME280;6687;47.790;7.322;2023-04-30T08:16:37;99079.94;;;17.46;56.50
13241;BME280;6687;47.790;7.322;2023-04-30T08:19:04;99080.13;;;18.08;55.38
13241;BME280;6687;47.790;7.322;2023-04-30T08:21:31;99081.31;;;17.97;55.10
13241;BME280;6687;47.790;7.322;2023-04-30T08:23:57;99074.72;;;18.15;55.10
13241;BME280;6687;47.790;7.322;2023-04-30T08:26:24;99072.03;;;18.16;54.21
13241;BME280;6687;47.790;7.322;2023-04-30T08:28:51;99078.06;;;17.87;54.44
13241;BME280;6687;47.790;7.322;2023-04-30T08:31:18;99083.19;;;18.24;54.31
13241;BME280;6687;47.790;7.322;2023-04-30T08:33:46;99078.66;;;18.29;54.47
13241;BME280;6687;47.790;7.322;2023-04-30T08:36:13;99072.59;;;18.59;53.51
13241;BME280;6687;47.790;7.322;2023-04-30T08:38:39;99066.38;;;18.63;53.31
13241;BME280;6687;47.790;7.322;2023-04-30T08:41:08;99065.53;;;19.20;54.04
13241;BME280;6687;47.790;7.322;2023-04-30T08:43:36;99071.63;;;18.32;53.66
13241;BME280;6687;47.790;7.322;2023-04-30T08:46:04;99061.84;;;18.98;52.18
13241;BME280;6687;47.790;7.322;2023-04-30T08:48:31;99054.09;;;19.21;52.44
13241;BME280;6687;47.790;7.322;2023-04-30T08:51:00;99057.69;;;18.91;52.30
13241;BME280;6687;47.790;7.322;2023-04-30T08:53:27;99045.72;;;19.37;54.34
13241;BME280;6687;47.790;7.322;2023-04-30T08:55:54;99045.59;;;19.13;51.93
13241;BME280;6687;47.790;7.322;2023-04-30T08:58:21;99051.41;;;19.78;51.57
13241;BME280;6687;47.790;7.322;2023-04-30T09:00:48;99045.91;;;19.04;51.33
13241;BME280;6687;47.790;7.322;2023-04-30T09:03:15;99047.38;;;19.39;52.25
13241;BME280;6687;47.790;7.322;2023-04-30T09:05:41;99040.88;;;20.03;50.74
13241;BME280;6687;47.790;7.322;2023-04-30T09:08:15;99040.91;;;20.26;50.67
13241;BME280;6687;47.790;7.322;2023-04-30T09:10:42;99042.81;;;19.73;49.38
13241;BME280;6687;47.790;7.322;2023-04-30T09:13:09;99051.81;;;19.11;50.09
13241;BME280;6687;47.790;7.322;2023-04-30T09:15:38;99047.53;;;19.61;50.75
13241;BME280;6687;47.790;7.322;2023-04-30T09:18:11;99036.06;;;20.39;50.12
13241;BME280;6687;47.790;7.322;2023-04-30T09:20:53;99043.53;;;20.26;49.05
13241;BME280;6687;47.790;7.322;2023-04-30T09:23:22;99052.19;;;19.53;48.94
13241;BME280;6687;47.790;7.322;2023-04-30T09:25:49;99040.66;;;19.04;49.98
13241;BME280;6687;47.790;7.322;2023-04-30T09:28:16;99045.09;;;20.32;48.42
13241;BME280;6687;47.790;7.322;2023-04-30T09:30:48;99047.97;;;20.26;47.77
13241;BME280;6687;47.790;7.322;2023-04-30T09:33:15;99042.88;;;19.96;47.99
13241;BME280;6687;47.790;7.322;2023-04-30T09:35:42;99030.94;;;20.11;47.60
13241;BME280;6687;47.790;7.322;2023-04-30T09:41:04;99037.34;;;20.76;47.70
13241;BME280;6687;47.790;7.322;2023-04-30T09:43:33;99041.31;;;20.16;48.73
13241;BME280;6687;47.790;7.322;2023-04-30T09:45:59;99034.00;;;20.48;48.32
13241;BME280;6687;47.790;7.322;2023-04-30T09:48:26;99032.38;;;20.91;47.14
13241;BME280;6687;47.790;7.322;2023-04-30T09:50:53;99037.78;;;20.40;49.66
13241;BME280;6687;47.790;7.322;2023-04-30T09:53:20;99034.13;;;20.92;46.29
13241;BME280;6687;47.790;7.322;2023-04-30T09:55:49;99032.97;;;21.63;46.90
13241;BME280;6687;47.790;7.322;2023-04-30T09:58:18;99036.56;;;20.49;46.47
13241;BME280;6687;47.790;7.322;2023-04-30T10:00:46;99038.88;;;20.82;45.98
13241;BME280;6687;47.790;7.322;2023-04-30T10:03:14;99022.91;;;21.73;46.05
13241;BME280;6687;47.790;7.322;2023-04-30T10:05:42;99023.81;;;21.72;45.10
13241;BME280;6687;47.790;7.322;2023-04-30T10:08:14;99024.53;;;21.55;45.00
13241;BME280;6687;47.790;7.322;2023-04-30T10:10:46;99021.84;;;21.57;44.82
13241;BME280;6687;47.790;7.322;2023-04-30T10:13:19;99015.34;;;22.26;45.71
13241;BME280;6687;47.790;7.322;2023-04-30T10:15:49;99018.84;;;22.05;43.87
13241;BME280;6687;47.790;7.322;2023-04-30T10:18:19;99010.75;;;22.31;43.35
13241;BME280;6687;47.790;7.322;2023-04-30T10:20:49;99011.53;;;22.33;43.21
13241;BME280;6687;47.790;7.322;2023-04-30T10:23:20;98991.97;;;22.56;41.55
13241;BME280;6687;47.790;7.322;2023-04-30T10:25:47;98996.13;;;22.42;41.73
13241;BME280;6687;47.790;7.322;2023-04-30T10:28:18;98993.66;;;22.95;41.13
13241;BME280;6687;47.790;7.322;2023-04-30T10:30:45;98992.69;;;22.59;40.88
13241;BME280;6687;47.790;7.322;2023-04-30T10:33:18;98994.63;;;23.11;40.28
13241;BME280;6687;47.790;7.322;2023-04-30T10:35:51;98986.97;;;22.50;40.81
13241;BME280;6687;47.790;7.322;2023-04-30T10:38:22;98982.13;;;22.78;41.83
13241;BME280;6687;47.790;7.322;2023-04-30T10:40:54;98982.06;;;23.16;40.17
13241;BME280;6687;47.790;7.322;2023-04-30T10:43:24;98976.34;;;23.78;41.89
13241;BME280;6687;47.790;7.322;2023-04-30T10:45:51;98964.94;;;23.06;38.47
13241;BME280;6687;47.790;7.322;2023-04-30T10:48:21;98969.47;;;23.39;38.77
13241;BME280;6687;47.790;7.322;2023-04-30T10:50:51;98964.78;;;23.09;38.11
13241;BME280;6687;47.790;7.322;2023-04-30T10:53:18;98973.81;;;23.75;37.85
13241;BME280;6687;47.790;7.322;2023-04-30T10:55:50;98972.56;;;23.99;37.18
13241;BME280;6687;47.790;7.322;2023-04-30T10:58:26;98962.50;;;24.06;37.13
13241;BME280;6687;47.790;7.322;2023-04-30T11:01:02;98970.13;;;22.71;40.27
13241;BME280;6687;47.790;7.322;2023-04-30T11:03:31;98964.72;;;23.63;37.71
13241;BME280;6687;47.790;7.322;2023-04-30T11:05:59;98958.09;;;23.72;36.83
13241;BME280;6687;47.790;7.322;2023-04-30T11:08:32;98955.66;;;24.02;37.21
13241;BME280;6687;47.790;7.322;2023-04-30T11:10:59;98957.28;;;23.54;37.77
13241;BME280;6687;47.790;7.322;2023-04-30T11:13:37;98951.28;;;23.33;37.35
13241;BME280;6687;47.790;7.322;2023-04-30T11:16:04;98961.69;;;23.18;39.11
13241;BME280;6687;47.790;7.322;2023-04-30T11:18:31;98967.28;;;23.30;39.61
13241;BME280;6687;47.790;7.322;2023-04-30T11:20:58;98957.25;;;22.82;38.39
13241;BME280;6687;47.790;7.322;2023-04-30T11:23:27;98964.97;;;23.41;42.86
13241;BME280;6687;47.790;7.322;2023-04-30T11:25:54;98960.97;;;22.78;38.64
13241;BME280;6687;47.790;7.322;2023-04-30T11:28:23;98969.72;;;23.34;38.14
13241;BME280;6687;47.790;7.322;2023-04-30T11:30:54;98964.00;;;22.52;40.70
13241;BME280;6687;47.790;7.322;2023-04-30T11:33:21;98960.06;;;23.16;38.57
13241;BME280;6687;47.790;7.322;2023-04-30T11:35:48;98953.13;;;23.13;38.07
13241;BME280;6687;47.790;7.322;2023-04-30T11:38:18;98951.97;;;22.82;38.14
13241;BME280;6687;47.790;7.322;2023-04-30T11:40:46;98952.19;;;22.21;39.61
13241;BME280;6687;47.790;7.322;2023-04-30T11:43:21;98946.09;;;22.95;38.74
13241;BME280;6687;47.790;7.322;2023-04-30T11:46:04;98946.34;;;22.71;38.52
13241;BME280;6687;47.790;7.322;2023-04-30T11:48:32;98941.50;;;22.98;38.26
13241;BME280;6687;47.790;7.322;2023-04-30T11:51:01;98937.38;;;22.93;38.92
13241;BME280;6687;47.790;7.322;2023-04-30T11:53:28;98951.91;;;23.20;37.76
13241;BME280;6687;47.790;7.322;2023-04-30T11:55:55;98945.66;;;23.74;37.79
13241;BME280;6687;47.790;7.322;2023-04-30T11:58:22;98943.72;;;24.11;37.62
13241;BME280;6687;47.790;7.322;2023-04-30T12:00:49;98940.38;;;23.21;37.51
13241;BME280;6687;47.790;7.322;2023-04-30T12:03:18;98942.72;;;23.28;37.11
13241;BME280;6687;47.790;7.322;2023-04-30T12:05:45;98952.44;;;22.54;37.09
13241;BME280;6687;47.790;7.322;2023-04-30T12:08:12;98951.06;;;23.01;37.30
13241;BME280;6687;47.790;7.322;2023-04-30T12:10:39;98950.41;;;23.85;36.67
13241;BME280;6687;47.790;7.322;2023-04-30T12:13:06;98940.50;;;23.71;36.85
13241;BME280;6687;47.790;7.322;2023-04-30T12:15:33;98938.81;;;23.35;36.14
13241;BME280;6687;47.790;7.322;2023-04-30T12:18:10;98936.81;;;23.40;37.12
13241;BME280;6687;47.790;7.322;2023-04-30T12:20:39;98937.44;;;23.10;36.55
13241;BME280;6687;47.790;7.322;2023-04-30T12:23:07;98936.84;;;24.40;35.36
13241;BME280;6687;47.790;7.322;2023-04-30T12:25:39;98933.16;;;24.42;34.99
13241;BME280;6687;47.790;7.322;2023-04-30T12:28:06;98934.22;;;24.72;36.92
13241;BME280;6687;47.790;7.322;2023-04-30T12:30:33;98937.09;;;23.86;35.48
13241;BME280;6687;47.790;7.322;2023-04-30T12:33:00;98933.16;;;24.42;35.29
13241;BME280;6687;47.790;7.322;2023-04-30T12:35:29;98921.38;;;24.64;35.03
13241;BME280;6687;47.790;7.322;2023-04-30T12:38:02;98927.19;;;24.55;34.14
13241;BME280;6687;47.790;7.322;2023-04-30T12:40:29;98925.81;;;24.48;35.15
13241;BME280;6687;47.790;7.322;2023-04-30T12:43:00;98930.50;;;24.42;34.30
13241;BME280;6687;47.790;7.322;2023-04-30T12:45:47;98933.31;;;25.03;33.66
13241;BME280;6687;47.790;7.322;2023-04-30T12:48:16;98930.59;;;24.57;35.30
13241;BME280;6687;47.790;7.322;2023-04-30T12:50:47;98931.28;;;25.53;33.77
13241;BME280;6687;47.790;7.322;2023-04-30T12:53:15;98935.22;;;25.31;34.72
13241;BME280;6687;47.790;7.322;2023-04-30T12:55:42;98929.84;;;25.33;34.18
13241;BME280;6687;47.790;7.322;2023-04-30T12:58:10;98940.84;;;24.95;34.61
13241;BME280;6687;47.790;7.322;2023-04-30T13:00:45;98942.59;;;24.64;34.06
13241;BME280;6687;47.790;7.322;2023-04-30T13:03:13;98940.97;;;25.24;33.96
13241;BME280;6687;47.790;7.322;2023-04-30T13:05:41;98934.69;;;24.47;33.83
13241;BME280;6687;47.790;7.322;2023-04-30T13:08:08;98932.28;;;24.26;33.79
13241;BME280;6687;47.790;7.322;2023-04-30T13:10:36;98936.13;;;25.00;34.96
13241;BME280;6687;47.790;7.322;2023-04-30T13:13:03;98929.94;;;24.53;35.08
13241;BME280;6687;47.790;7.322;2023-04-30T13:15:30;98923.66;;;25.32;34.51
13241;BME280;6687;47.790;7.322;2023-04-30T13:17:56;98920.59;;;24.30;35.34
13241;BME280;6687;47.790;7.322;2023-04-30T13:20:23;98921.19;;;24.35;33.05
13241;BME280;6687;47.790;7.322;2023-04-30T13:22:51;98921.00;;;24.07;33.88
13241;BME280;6687;47.790;7.322;2023-04-30T13:25:18;98917.47;;;24.55;33.75
13241;BME280;6687;47.790;7.322;2023-04-30T13:27:47;98920.50;;;24.16;34.48
13241;BME280;6687;47.790;7.322;2023-04-30T13:30:14;98911.28;;;24.55;33.64
13241;BME280;6687;47.790;7.322;2023-04-30T13:32:41;98909.91;;;24.79;33.41
13241;BME280;6687;47.790;7.322;2023-04-30T13:35:08;98902.22;;;24.43;36.88
13241;BME280;6687;47.790;7.322;2023-04-30T13:37:35;98909.84;;;24.49;37.35
13241;BME280;6687;47.790;7.322;2023-04-30T13:40:03;98900.09;;;24.81;34.26
13241;BME280;6687;47.790;7.322;2023-04-30T13:42:30;98900.31;;;24.45;32.95
13241;BME280;6687;47.790;7.322;2023-04-30T13:44:58;98904.44;;;24.83;33.22
13241;BME280;6687;47.790;7.322;2023-04-30T13:47:25;98905.84;;;25.34;36.34
13241;BME280;6687;47.790;7.322;2023-04-30T13:49:52;98903.94;;;24.44;33.18
13241;BME280;6687;47.790;7.322;2023-04-30T13:52:19;98898.44;;;24.95;33.17
13241;BME280;6687;47.790;7.322;2023-04-30T13:54:46;98895.22;;;24.42;34.10
13241;BME280;6687;47.790;7.322;2023-04-30T13:57:13;98894.59;;;24.85;34.95
13241;BME280;6687;47.790;7.322;2023-04-30T13:59:42;98888.78;;;23.98;33.70
13241;BME280;6687;47.790;7.322;2023-04-30T14:02:11;98891.72;;;24.10;36.01
13241;BME280;6687;47.790;7.322;2023-04-30T14:04:37;98895.25;;;24.58;33.92
13241;BME280;6687;47.790;7.322;2023-04-30T14:07:04;98884.78;;;24.39;33.43
13241;BME280;6687;47.790;7.322;2023-04-30T14:09:31;98887.34;;;24.09;34.05
13241;BME280;6687;47.790;7.322;2023-04-30T14:11:57;98884.91;;;24.99;33.93
13241;BME280;6687;47.790;7.322;2023-04-30T14:14:24;98890.72;;;23.79;35.43
13241;BME280;6687;47.790;7.322;2023-04-30T14:16:51;98877.13;;;22.99;35.23
13241;BME280;6687;47.790;7.322;2023-04-30T14:19:20;98879.88;;;23.50;36.37
13241;BME280;6687;47.790;7.322;2023-04-30T14:21:47;98873.72;;;23.83;35.22
13241;BME280;6687;47.790;7.322;2023-04-30T14:24:14;98880.88;;;24.30;34.12
13241;BME280;6687;47.790;7.322;2023-04-30T14:26:42;98886.78;;;23.53;34.29
13241;BME280;6687;47.790;7.322;2023-04-30T14:29:10;98877.88;;;23.38;34.38
13241;BME280;6687;47.790;7.322;2023-04-30T14:31:37;98870.97;;;24.34;34.04
13241;BME280;6687;47.790;7.322;2023-04-30T14:34:03;98867.19;;;24.38;34.80
13241;BME280;6687;47.790;7.322;2023-04-30T14:36:32;98870.88;;;24.04;34.16
13241;BME280;6687;47.790;7.322;2023-04-30T14:38:59;98876.59;;;24.12;34.30
13241;BME280;6687;47.790;7.322;2023-04-30T14:41:28;98872.41;;;23.23;34.46
13241;BME280;6687;47.790;7.322;2023-04-30T14:43:54;98875.41;;;24.01;33.32
13241;BME280;6687;47.790;7.322;2023-04-30T14:46:21;98871.88;;;24.17;33.14
13241;BME280;6687;47.790;7.322;2023-04-30T14:48:48;98874.06;;;23.59;34.65
13241;BME280;6687;47.790;7.322;2023-04-30T14:51:14;98872.16;;;24.60;35.29
13241;BME280;6687;47.790;7.322;2023-04-30T14:53:42;98876.69;;;23.77;34.42
13241;BME280;6687;47.790;7.322;2023-04-30T14:56:09;98878.19;;;23.14;34.46
13241;BME280;6687;47.790;7.322;2023-04-30T14:58:37;98878.59;;;23.24;35.28
13241;BME280;6687;47.790;7.322;2023-04-30T15:01:04;98871.63;;;23.39;34.85
13241;BME280;6687;47.790;7.322;2023-04-30T15:03:30;98865.78;;;23.83;34.81
13241;BME280;6687;47.790;7.322;2023-04-30T15:05:58;98868.31;;;23.69;34.97
13241;BME280;6687;47.790;7.322;2023-04-30T15:08:24;98861.97;;;23.71;34.54
13241;BME280;6687;47.790;7.322;2023-04-30T15:10:52;98871.75;;;23.53;34.97
13241;BME280;6687;47.790;7.322;2023-04-30T15:13:20;98870.00;;;23.54;35.03
13241;BME280;6687;47.790;7.322;2023-04-30T15:15:46;98871.66;;;23.04;35.08
13241;BME280;6687;47.790;7.322;2023-04-30T15:18:14;98866.28;;;22.88;36.26
13241;BME280;6687;47.790;7.322;2023-04-30T15:20:41;98870.78;;;22.50;35.81
13241;BME280;6687;47.790;7.322;2023-04-30T15:23:07;98869.78;;;23.23;35.41
13241;BME280;6687;47.790;7.322;2023-04-30T15:25:35;98873.91;;;22.58;35.79
13241;BME280;6687;47.790;7.322;2023-04-30T15:28:03;98879.28;;;22.74;36.94
13241;BME280;6687;47.790;7.322;2023-04-30T15:30:31;98868.25;;;23.02;37.00
13241;BME280;6687;47.790;7.322;2023-04-30T15:32:57;98881.22;;;21.56;37.81
13241;BME280;6687;47.790;7.322;2023-04-30T15:35:25;98876.91;;;22.12;36.90
13241;BME280;6687;47.790;7.322;2023-04-30T15:37:52;98875.31;;;21.51;38.15
13241;BME280;6687;47.790;7.322;2023-04-30T15:40:18;98866.63;;;21.68;38.57
13241;BME280;6687;47.790;7.322;2023-04-30T15:42:45;98864.50;;;21.76;37.13
13241;BME280;6687;47.790;7.322;2023-04-30T15:45:13;98880.72;;;22.07;36.79
13241;BME280;6687;47.790;7.322;2023-04-30T15:47:40;98875.72;;;22.00;37.08
13241;BME280;6687;47.790;7.322;2023-04-30T15:50:08;98873.34;;;22.51;37.77
13241;BME280;6687;47.790;7.322;2023-04-30T15:52:34;98870.50;;;21.80;37.73
13241;BME280;6687;47.790;7.322;2023-04-30T15:55:01;98877.78;;;21.75;37.55
13241;BME280;6687;47.790;7.322;2023-04-30T15:57:28;98873.69;;;21.06;38.05
13241;BME280;6687;47.790;7.322;2023-04-30T15:59:55;98867.75;;;21.62;37.52
13241;BME280;6687;47.790;7.322;2023-04-30T16:02:23;98869.75;;;21.57;38.00
13241;BME280;6687;47.790;7.322;2023-04-30T16:04:50;98869.69;;;22.36;37.42
13241;BME280;6687;47.790;7.322;2023-04-30T16:07:16;98867.59;;;21.47;38.65
13241;BME280;6687;47.790;7.322;2023-04-30T16:09:43;98867.53;;;22.07;37.28
13241;BME280;6687;47.790;7.322;2023-04-30T16:12:13;98871.13;;;22.61;37.81
13241;BME280;6687;47.790;7.322;2023-04-30T16:14:40;98877.78;;;21.94;37.48
13241;BME280;6687;47.790;7.322;2023-04-30T16:17:07;98876.22;;;21.30;38.02
13241;BME280;6687;47.790;7.322;2023-04-30T16:19:35;98870.81;;;20.92;38.52
13241;BME280;6687;47.790;7.322;2023-04-30T16:22:02;98876.16;;;21.52;38.10
13241;BME280;6687;47.790;7.322;2023-04-30T16:24:29;98872.84;;;20.85;38.65
13241;BME280;6687;47.790;7.322;2023-04-30T16:26:56;98876.72;;;20.97;38.98
13241;BME280;6687;47.790;7.322;2023-04-30T16:29:22;98875.03;;;21.57;38.18
13241;BME280;6687;47.790;7.322;2023-04-30T16:31:50;98882.06;;;21.36;38.96
13241;BME280;6687;47.790;7.322;2023-04-30T16:34:17;98891.63;;;21.39;38.56
13241;BME280;6687;47.790;7.322;2023-04-30T16:36:45;98874.59;;;20.40;39.73
13241;BME280;6687;47.790;7.322;2023-04-30T16:39:12;98880.63;;;20.66;39.52
13241;BME280;6687;47.790;7.322;2023-04-30T16:41:39;98872.41;;;21.57;42.73
13241;BME280;6687;47.790;7.322;2023-04-30T16:44:06;98879.16;;;20.59;39.58
13241;BME280;6687;47.790;7.322;2023-04-30T16:46:35;98878.00;;;20.66;41.07
13241;BME280;6687;47.790;7.322;2023-04-30T16:49:02;98878.47;;;21.39;41.26
13241;BME280;6687;47.790;7.322;2023-04-30T16:51:29;98870.81;;;20.48;39.89
13241;BME280;6687;47.790;7.322;2023-04-30T16:53:58;98870.47;;;20.33;40.18
13241;BME280;6687;47.790;7.322;2023-04-30T16:56:24;98871.59;;;20.05;40.31
13241;BME280;6687;47.790;7.322;2023-04-30T16:58:51;98874.59;;;20.40;41.17
13241;BME280;6687;47.790;7.322;2023-04-30T17:01:18;98871.19;;;20.82;42.42
13241;BME280;6687;47.790;7.322;2023-04-30T17:03:45;98880.06;;;20.36;40.49
13241;BME280;6687;47.790;7.322;2023-04-30T17:06:12;98873.34;;;20.27;40.53
13241;BME280;6687;47.790;7.322;2023-04-30T17:08:38;98878.03;;;20.42;40.86
13241;BME280;6687;47.790;7.322;2023-04-30T17:11:07;98878.97;;;19.96;41.23
13241;BME280;6687;47.790;7.322;2023-04-30T17:13:33;98873.50;;;20.24;42.34
13241;BME280;6687;47.790;7.322;2023-04-30T17:16:01;98876.94;;;20.26;40.81
13241;BME280;6687;47.790;7.322;2023-04-30T17:18:28;98880.81;;;19.68;41.58
13241;BME280;6687;47.790;7.322;2023-04-30T17:20:55;98881.47;;;19.50;42.00
13241;BME280;6687;47.790;7.322;2023-04-30T17:23:22;98881.16;;;20.52;42.64
13241;BME280;6687;47.790;7.322;2023-04-30T17:25:49;98881.75;;;19.42;41.74
13241;BME280;6687;47.790;7.322;2023-04-30T17:28:17;98882.72;;;19.63;41.82
13241;BME280;6687;47.790;7.322;2023-04-30T17:30:44;98879.31;;;19.11;42.43
13241;BME280;6687;47.790;7.322;2023-04-30T17:33:11;98881.78;;;19.16;42.02
13241;BME280;6687;47.790;7.322;2023-04-30T17:35:38;98880.84;;;19.18;42.41
13241;BME280;6687;47.790;7.322;2023-04-30T17:38:05;98877.56;;;19.37;42.03
13241;BME280;6687;47.790;7.322;2023-04-30T17:40:31;98884.69;;;19.58;41.98
13241;BME280;6687;47.790;7.322;2023-04-30T17:42:58;98885.75;;;19.27;42.26
13241;BME280;6687;47.790;7.322;2023-04-30T17:45:27;98883.66;;;19.62;44.01
13241;BME280;6687;47.790;7.322;2023-04-30T17:47:53;98884.75;;;19.06;42.10
13241;BME280;6687;47.790;7.322;2023-04-30T17:50:20;98887.47;;;19.03;42.50
13241;BME280;6687;47.790;7.322;2023-04-30T17:52:47;98891.34;;;19.18;42.46
13241;BME280;6687;47.790;7.322;2023-04-30T17:55:14;98886.22;;;18.88;42.27
13241;BME280;6687;47.790;7.322;2023-04-30T17:57:41;98886.53;;;18.79;42.82
13241;BME280;6687;47.790;7.322;2023-04-30T18:00:08;98887.63;;;18.99;42.49
13241;BME280;6687;47.790;7.322;2023-04-30T18:02:36;98888.81;;;19.15;42.82
13241;BME280;6687;47.790;7.322;2023-04-30T18:05:04;98886.56;;;19.30;43.75
13241;BME280;6687;47.790;7.322;2023-04-30T18:07:31;98886.88;;;18.95;42.48
13241;BME280;6687;47.790;7.322;2023-04-30T18:09:57;98887.41;;;18.78;45.42
13241;BME280;6687;47.790;7.322;2023-04-30T18:12:24;98891.78;;;18.51;43.48
13241;BME280;6687;47.790;7.322;2023-04-30T18:14:51;98884.84;;;18.77;45.42
13241;BME280;6687;47.790;7.322;2023-04-30T18:17:18;98889.00;;;17.98;43.98
13241;BME280;6687;47.790;7.322;2023-04-30T18:19:46;98895.56;;;18.42;43.37
13241;BME280;6687;47.790;7.322;2023-04-30T18:22:14;98894.00;;;18.35;43.22
13241;BME280;6687;47.790;7.322;2023-04-30T18:24:40;98890.97;;;18.21;43.32
13241;BME280;6687;47.790;7.322;2023-04-30T18:27:07;98888.56;;;18.41;44.46
13241;BME280;6687;47.790;7.322;2023-04-30T18:29:35;98890.59;;;18.03;44.01
13241;BME280;6687;47.790;7.322;2023-04-30T18:32:02;98885.59;;;18.24;45.40
13241;BME280;6687;47.790;7.322;2023-04-30T18:34:28;98890.31;;;17.83;44.41
13241;BME280;6687;47.790;7.322;2023-04-30T18:36:57;98889.59;;;18.07;44.91
13241;BME280;6687;47.790;7.322;2023-04-30T18:39:23;98892.63;;;17.94;45.51